createdAt,value
2023-02-17T00:01:39.972Z,96.03
2023-02-17T00:04:07.584Z,95.51
2023-02-17T00:06:38.912Z,95.16
2023-02-17T00:09:07.515Z,95.48
2023-02-17T00:11:43.904Z,96.00
2023-02-17T00:14:13.598Z,95.26
2023-02-17T00:16:42.591Z,96.33
2023-02-17T00:19:25.250Z,95.78
2023-02-17T00:21:56.594Z,94.80
2023-02-17T00:24:24.629Z,94.79
2023-02-17T00:26:52.457Z,94.55
2023-02-17T00:29:20.180Z,94.24
2023-02-17T00:31:48.321Z,94.92
2023-02-17T00:34:18.421Z,94.99
2023-02-17T00:36:46.360Z,94.78
2023-02-17T00:39:17.313Z,93.87
2023-02-17T00:41:45.739Z,93.19
2023-02-17T00:44:18.936Z,93.81
2023-02-17T00:46:47.775Z,94.32
2023-02-17T00:49:17.912Z,93.61
2023-02-17T00:51:48.573Z,93.74
2023-02-17T00:54:18.754Z,92.88
2023-02-17T00:56:46.952Z,93.34
2023-02-17T00:59:14.728Z,92.95
2023-02-17T01:01:42.474Z,92.91
2023-02-17T01:04:10.194Z,92.03
2023-02-17T01:06:39.688Z,91.95
2023-02-17T01:09:09.849Z,91.29
2023-02-17T01:11:38.723Z,91.72
2023-02-17T01:14:10.252Z,91.24
2023-02-17T01:16:39.805Z,91.70
2023-02-17T01:19:10.297Z,91.79
2023-02-17T01:21:37.968Z,91.97
2023-02-17T01:24:07.721Z,91.83
2023-02-17T01:26:37.238Z,92.28
2023-02-17T01:29:07.099Z,91.57
2023-02-17T01:31:34.940Z,92.17
2023-02-17T01:34:04.778Z,92.01
2023-02-17T01:36:33.410Z,92.06
2023-02-17T01:39:01.483Z,91.32
2023-02-17T01:41:30.036Z,91.15
2023-02-17T01:44:13.037Z,90.84
2023-02-17T01:46:41.919Z,90.58
2023-02-17T01:49:26.142Z,90.34
2023-02-17T01:51:58.130Z,90.30
2023-02-17T01:54:29.654Z,90.99
2023-02-17T01:57:00.777Z,90.69
2023-02-17T01:59:33.213Z,91.01
2023-02-17T02:02:05.793Z,89.78
2023-02-17T02:04:36.891Z,89.07
2023-02-17T02:07:07.190Z,89.40
2023-02-17T02:09:39.780Z,89.44
2023-02-17T02:12:18.930Z,89.85
2023-02-17T02:14:48.647Z,90.73
2023-02-17T02:17:26.969Z,91.09
2023-02-17T02:20:17.879Z,91.54
2023-02-17T02:23:14.017Z,91.73
2023-02-17T02:26:20.747Z,93.08
2023-02-17T02:29:09.675Z,92.75
2023-02-17T02:31:49.077Z,93.03
2023-02-17T02:34:25.683Z,93.64
2023-02-17T02:37:04.413Z,94.23
2023-02-17T02:39:39.857Z,93.65
2023-02-17T02:42:13.397Z,92.88
2023-02-17T02:44:41.242Z,93.47
2023-02-17T02:47:44.744Z,93.68
2023-02-17T02:50:21.252Z,94.68
2023-02-17T02:53:15.425Z,94.64
2023-02-17T02:55:53.635Z,94.36
2023-02-17T02:58:25.412Z,94.19
2023-02-17T03:01:00.049Z,94.00
2023-02-17T03:03:36.352Z,93.75
2023-02-17T03:06:16.797Z,93.56
2023-02-17T03:08:48.714Z,93.85
2023-02-17T03:11:32.170Z,93.60
2023-02-17T03:14:04.370Z,93.79
2023-02-17T03:16:32.742Z,93.43
2023-02-17T03:19:00.562Z,94.26
2023-02-17T03:21:36.382Z,94.46
2023-02-17T03:24:04.137Z,93.92
2023-02-17T03:26:32.173Z,93.80
2023-02-17T03:28:59.850Z,94.55
2023-02-17T03:31:30.715Z,94.41
2023-02-17T03:33:58.861Z,95.48
2023-02-17T03:36:26.469Z,94.65
2023-02-17T03:38:58.399Z,94.69
2023-02-17T03:41:26.392Z,94.23
2023-02-17T03:43:53.935Z,94.00
2023-02-17T03:46:21.669Z,93.88
2023-02-17T03:48:49.384Z,93.39
2023-02-17T03:51:20.277Z,92.87
2023-02-17T03:53:48.796Z,93.08
2023-02-17T03:56:19.562Z,92.74
2023-02-17T03:58:47.113Z,92.87
2023-02-17T04:01:15.444Z,92.14
2023-02-17T04:03:43.409Z,91.68
2023-02-17T04:06:11.724Z,92.09
2023-02-17T04:08:43.400Z,92.51
2023-02-17T04:11:14.316Z,93.23
2023-02-17T04:13:43.625Z,93.35
2023-02-17T04:16:12.531Z,93.75
2023-02-17T04:18:40.805Z,94.63
2023-02-17T04:21:08.782Z,95.33
2023-02-17T04:23:37.282Z,95.25
2023-02-17T04:26:16.524Z,95.68
2023-02-17T04:28:45.443Z,95.78
2023-02-17T04:31:13.274Z,95.48
2023-02-17T04:33:43.894Z,95.27
2023-02-17T04:36:14.101Z,95.04
2023-02-17T04:38:41.962Z,96.15
2023-02-17T04:41:09.574Z,94.91
2023-02-17T04:43:37.188Z,93.82
2023-02-17T04:46:09.688Z,94.08
2023-02-17T04:48:39.274Z,93.85
2023-02-17T04:51:07.457Z,93.45
2023-02-17T04:53:35.318Z,93.49
2023-02-17T04:56:03.022Z,93.75
2023-02-17T04:58:30.554Z,94.10
2023-02-17T05:01:00.507Z,94.21
2023-02-17T05:03:29.705Z,94.10
2023-02-17T05:06:01.079Z,93.67
2023-02-17T05:08:28.947Z,93.39
2023-02-17T05:10:56.841Z,93.92
2023-02-17T05:13:24.389Z,94.36
2023-02-17T05:15:51.988Z,94.69
2023-02-17T05:18:19.740Z,95.60
2023-02-17T05:20:48.615Z,95.03
2023-02-17T05:23:16.309Z,95.53
2023-02-17T05:25:44.866Z,95.30
2023-02-17T05:28:18.006Z,96.67
2023-02-17T05:30:45.845Z,97.79
2023-02-17T05:33:13.813Z,98.73
2023-02-17T05:35:44.068Z,99.20
2023-02-17T05:38:14.158Z,100.00
2023-02-17T05:40:41.957Z,100.00
2023-02-17T05:43:09.755Z,100.00
2023-02-17T05:45:37.438Z,100.00
2023-02-17T05:48:05.390Z,100.00
2023-02-17T05:50:33.191Z,100.00
2023-02-17T05:53:00.811Z,100.00
2023-02-17T05:55:29.786Z,100.00
2023-02-17T05:57:57.291Z,100.00
2023-02-17T06:00:25.177Z,100.00
2023-02-17T06:02:52.860Z,100.00
2023-02-17T06:05:22.256Z,100.00
2023-02-17T06:07:49.912Z,100.00
2023-02-17T06:10:17.555Z,99.27
2023-02-17T06:12:46.408Z,99.99
2023-02-17T06:15:14.133Z,100.00
2023-02-17T06:17:41.746Z,100.00
2023-02-17T06:20:11.024Z,100.00
2023-02-17T06:22:38.664Z,100.00
2023-02-17T06:25:06.908Z,100.00
2023-02-17T06:27:34.543Z,100.00
2023-02-17T06:30:03.608Z,100.00
2023-02-17T06:32:31.372Z,100.00
2023-02-17T06:34:58.865Z,100.00
2023-02-17T06:37:26.585Z,100.00
2023-02-17T06:39:54.138Z,100.00
2023-02-17T06:42:21.676Z,100.00
2023-02-17T06:44:49.335Z,100.00
2023-02-17T06:47:20.310Z,100.00
2023-02-17T06:49:48.960Z,100.00
2023-02-17T06:52:16.489Z,100.00
2023-02-17T06:54:44.018Z,100.00
2023-02-17T06:57:11.627Z,100.00
2023-02-17T06:59:39.191Z,100.00
2023-02-17T07:02:07.626Z,100.00
2023-02-17T07:04:36.528Z,100.00
2023-02-17T07:07:04.094Z,100.00
2023-02-17T07:09:32.928Z,100.00
2023-02-17T07:12:00.673Z,100.00
2023-02-17T07:14:29.721Z,100.00
2023-02-17T07:16:57.262Z,100.00
2023-02-17T07:19:24.881Z,100.00
2023-02-17T07:21:53.995Z,100.00
2023-02-17T07:24:21.535Z,100.00
2023-02-17T07:26:49.440Z,100.00
2023-02-17T07:29:18.651Z,100.00
2023-02-17T07:31:51.031Z,100.00
2023-02-17T07:34:19.617Z,100.00
2023-02-17T07:36:47.238Z,100.00
2023-02-17T07:39:16.229Z,100.00
2023-02-17T07:41:43.831Z,100.00
2023-02-17T07:44:17.245Z,100.00
2023-02-17T07:46:45.295Z,100.00
2023-02-17T07:49:16.769Z,100.00
2023-02-17T07:51:45.332Z,100.00
2023-02-17T07:54:14.067Z,100.00
2023-02-17T07:56:43.040Z,100.00
2023-02-17T07:59:11.006Z,100.00
2023-02-17T08:01:38.837Z,99.15
2023-02-17T08:04:06.481Z,99.71
2023-02-17T08:06:34.125Z,99.17
2023-02-17T08:09:19.382Z,99.88
2023-02-17T08:12:06.150Z,98.71
2023-02-17T08:14:33.741Z,98.14
2023-02-17T08:17:01.689Z,98.40
2023-02-17T08:19:42.879Z,97.24
2023-02-17T08:22:14.426Z,96.91
2023-02-17T08:24:42.038Z,97.36
2023-02-17T08:27:11.085Z,96.78
2023-02-17T08:29:38.802Z,95.41
2023-02-17T08:32:09.550Z,94.54
2023-02-17T08:34:37.235Z,93.18
2023-02-17T08:37:07.288Z,92.55
2023-02-17T08:39:35.841Z,90.79
2023-02-17T08:42:04.847Z,89.48
2023-02-17T08:44:43.427Z,89.56
2023-02-17T08:47:11.698Z,89.77
2023-02-17T08:49:39.732Z,89.67
2023-02-17T08:52:07.298Z,88.45
2023-02-17T08:54:35.213Z,88.71
2023-02-17T08:57:02.742Z,88.87
2023-02-17T08:59:30.470Z,89.99
2023-02-17T09:02:06.403Z,89.74
2023-02-17T09:04:34.218Z,90.35
2023-02-17T09:07:02.945Z,90.04
2023-02-17T09:09:31.593Z,89.96
2023-02-17T09:11:59.984Z,91.32
2023-02-17T09:14:28.506Z,92.15
2023-02-17T09:16:59.557Z,93.61
2023-02-17T09:19:28.649Z,98.05
2023-02-17T09:21:57.372Z,98.20
2023-02-17T09:24:24.993Z,99.60
2023-02-17T09:26:52.648Z,99.64
2023-02-17T09:29:20.308Z,100.00
2023-02-17T09:31:47.984Z,99.66
2023-02-17T09:34:15.824Z,98.75
2023-02-17T09:36:45.311Z,97.73
2023-02-17T09:39:14.788Z,99.35
2023-02-17T09:41:47.276Z,99.05
2023-02-17T09:44:22.491Z,99.35
2023-02-17T09:47:02.286Z,99.36
2023-02-17T09:49:37.131Z,99.95
2023-02-17T09:52:19.672Z,98.38
2023-02-17T09:54:58.169Z,99.01
2023-02-17T09:57:29.292Z,97.78
2023-02-17T10:00:03.893Z,96.64
2023-02-17T10:02:40.145Z,95.86
2023-02-17T10:05:12.098Z,95.33
2023-02-17T10:07:47.131Z,95.51
2023-02-17T10:10:19.268Z,95.39
2023-02-17T10:12:52.485Z,95.92
2023-02-17T10:15:24.235Z,96.01
2023-02-17T10:17:57.928Z,95.49
2023-02-17T10:20:32.008Z,95.38
2023-02-17T10:23:08.113Z,95.78
2023-02-17T10:25:51.838Z,94.16
2023-02-17T10:28:27.656Z,95.27
2023-02-17T10:31:04.243Z,93.32
2023-02-17T10:33:39.282Z,91.46
2023-02-17T10:36:19.718Z,90.00
2023-02-17T10:38:52.614Z,89.18
2023-02-17T10:41:23.757Z,87.73
2023-02-17T10:43:52.643Z,86.80
2023-02-17T10:46:31.656Z,88.35
2023-02-17T10:49:02.470Z,86.79
2023-02-17T10:51:31.673Z,84.66
2023-02-17T10:54:06.735Z,83.88
2023-02-17T10:56:40.584Z,83.36
2023-02-17T10:59:15.728Z,84.69
2023-02-17T11:01:44.284Z,82.31
2023-02-17T11:04:14.083Z,83.21
2023-02-17T11:06:45.322Z,84.58
2023-02-17T11:09:28.509Z,84.23
2023-02-17T11:12:01.217Z,84.70
2023-02-17T11:14:30.854Z,85.05
2023-02-17T11:17:00.604Z,85.20
2023-02-17T11:19:30.832Z,83.54
2023-02-17T11:22:00.433Z,83.50
2023-02-17T11:24:32.192Z,84.20
2023-02-17T11:27:01.313Z,83.41
2023-02-17T11:29:29.606Z,82.38
2023-02-17T11:32:00.026Z,80.65
2023-02-17T11:34:29.772Z,81.18
2023-02-17T11:37:02.798Z,80.60
2023-02-17T11:39:32.144Z,79.96
2023-02-17T11:42:00.742Z,83.32
2023-02-17T11:44:29.781Z,82.40
2023-02-17T11:47:15.720Z,82.51
2023-02-17T11:50:12.729Z,82.75
2023-02-17T11:52:54.025Z,82.71
2023-02-17T11:55:30.565Z,82.87
2023-02-17T11:58:16.692Z,82.08
2023-02-17T12:00:52.410Z,83.13
2023-02-17T12:04:14.679Z,83.29
2023-02-17T12:06:59.345Z,84.31
2023-02-17T12:09:35.720Z,84.64
2023-02-17T12:12:17.792Z,86.56
2023-02-17T12:14:59.760Z,87.08
2023-02-17T12:17:39.550Z,86.58
2023-02-17T12:20:29.175Z,86.34
2023-02-17T12:23:09.083Z,87.29
2023-02-17T12:26:12.973Z,86.58
2023-02-17T12:29:03.793Z,87.15
2023-02-17T12:31:53.539Z,86.72
2023-02-17T12:34:30.337Z,85.60
2023-02-17T12:36:59.862Z,85.11
2023-02-17T12:39:33.729Z,84.13
2023-02-17T12:42:08.169Z,83.28
2023-02-17T12:44:41.249Z,83.94
2023-02-17T12:47:15.877Z,82.82
2023-02-17T12:49:48.439Z,82.07
2023-02-17T12:52:25.747Z,80.93
2023-02-17T12:54:57.043Z,79.40
2023-02-17T12:57:28.994Z,78.84
2023-02-17T12:59:59.751Z,78.34
2023-02-17T13:02:27.660Z,78.88
2023-02-17T13:05:02.202Z,78.26
2023-02-17T13:07:53.075Z,78.72
2023-02-17T13:10:33.552Z,79.92
2023-02-17T13:13:04.158Z,79.75
2023-02-17T13:15:36.806Z,79.58
2023-02-17T13:18:06.970Z,80.38
2023-02-17T13:20:54.431Z,80.27
2023-02-17T13:23:39.205Z,79.05
2023-02-17T13:26:28.576Z,78.54
2023-02-17T13:29:13.386Z,78.48
2023-02-17T13:31:54.562Z,78.54
2023-02-17T13:34:31.408Z,78.33
2023-02-17T13:37:03.625Z,78.04
2023-02-17T13:39:38.369Z,80.01
2023-02-17T13:42:37.344Z,80.39
2023-02-17T13:45:15.369Z,80.79
2023-02-17T13:47:46.912Z,81.39
2023-02-17T13:50:29.443Z,81.96
2023-02-17T13:52:57.461Z,82.63
2023-02-17T13:55:25.744Z,83.46
2023-02-17T13:57:54.451Z,82.92
2023-02-17T14:00:25.150Z,83.02
2023-02-17T14:02:58.957Z,83.76
2023-02-17T14:05:36.997Z,83.89
2023-02-17T14:08:08.952Z,83.71
2023-02-17T14:10:42.244Z,82.67
2023-02-17T14:13:16.248Z,82.44
2023-02-17T14:15:57.803Z,83.07
2023-02-17T14:18:33.928Z,83.62
2023-02-17T14:21:09.206Z,83.64
2023-02-17T14:23:44.741Z,83.50
2023-02-17T14:26:16.592Z,83.62
2023-02-17T14:28:54.859Z,81.97
2023-02-17T14:31:23.880Z,82.68
2023-02-17T14:34:01.486Z,83.28
2023-02-17T14:36:33.654Z,83.07
2023-02-17T14:39:02.520Z,83.58
2023-02-17T14:41:31.673Z,82.85
2023-02-17T14:43:59.879Z,83.26
2023-02-17T14:46:29.709Z,82.42
2023-02-17T14:48:58.758Z,83.23
2023-02-17T14:51:32.664Z,83.30
2023-02-17T14:54:03.207Z,84.23
2023-02-17T14:56:34.903Z,84.05
2023-02-17T14:59:02.589Z,83.45
2023-02-17T15:01:30.188Z,83.73
2023-02-17T15:03:59.135Z,82.88
2023-02-17T15:06:32.578Z,83.59
2023-02-17T15:09:02.256Z,83.52
2023-02-17T15:11:36.794Z,82.86
2023-02-17T15:14:08.375Z,83.94
2023-02-17T15:16:36.594Z,84.59
2023-02-17T15:19:05.555Z,83.61
2023-02-17T15:21:35.136Z,83.44
2023-02-17T15:24:04.408Z,84.03
2023-02-17T15:26:36.301Z,84.42
2023-02-17T15:29:04.384Z,83.90
2023-02-17T15:31:35.250Z,84.42
2023-02-17T15:34:09.617Z,84.76
2023-02-17T15:36:37.279Z,83.93
2023-02-17T15:39:04.864Z,84.42
2023-02-17T15:41:35.242Z,84.90
2023-02-17T15:44:08.277Z,84.49
2023-02-17T15:46:36.840Z,84.27
2023-02-17T15:49:06.168Z,84.09
2023-02-17T15:51:33.753Z,84.79
2023-02-17T15:54:01.541Z,85.69
2023-02-17T15:56:33.453Z,85.81
2023-02-17T15:59:16.171Z,85.84
2023-02-17T16:01:46.805Z,87.04
2023-02-17T16:04:19.850Z,86.97
2023-02-17T16:09:33.353Z,86.96
2023-02-17T16:12:01.616Z,87.36
2023-02-17T16:14:34.768Z,87.57
2023-02-17T16:17:03.086Z,87.13
2023-02-17T16:19:34.899Z,87.71
2023-02-17T16:22:02.551Z,87.79
2023-02-17T16:24:30.307Z,87.35
2023-02-17T16:26:58.008Z,87.77
2023-02-17T16:29:25.534Z,87.95
2023-02-17T16:32:28.486Z,87.59
2023-02-17T16:38:23.405Z,89.03
2023-02-17T16:40:55.174Z,88.66
2023-02-17T16:43:25.344Z,88.29
2023-02-17T16:45:57.546Z,88.10
2023-02-17T16:48:27.433Z,88.81
2023-02-17T16:50:58.420Z,89.18
2023-02-17T16:53:29.755Z,88.97
2023-02-17T16:55:57.843Z,89.06
2023-02-17T16:58:31.342Z,89.33
2023-02-17T17:01:00.312Z,89.41
2023-02-17T17:03:30.194Z,90.32
2023-02-17T17:06:00.111Z,90.19
2023-02-17T17:08:29.686Z,90.54
2023-02-17T17:10:58.761Z,90.43
2023-02-17T17:13:28.803Z,90.31
2023-02-17T17:15:57.059Z,90.44
2023-02-17T17:18:24.811Z,90.88
2023-02-17T17:20:52.821Z,91.14
2023-02-17T17:23:31.803Z,90.79
2023-02-17T17:25:59.652Z,91.14
2023-02-17T17:28:35.965Z,90.97
2023-02-17T17:31:06.220Z,91.12
2023-02-17T17:33:47.965Z,90.55
2023-02-17T17:36:29.745Z,91.68
2023-02-17T17:39:02.509Z,91.96
2023-02-17T17:41:30.820Z,91.62
2023-02-17T17:44:00.018Z,92.11
2023-02-17T17:46:33.040Z,91.49
2023-02-17T17:49:03.312Z,91.89
2023-02-17T17:51:32.545Z,90.92
2023-02-17T17:54:08.771Z,91.30
2023-02-17T17:56:41.915Z,91.10
2023-02-17T17:59:10.238Z,91.38
2023-02-17T18:01:38.417Z,90.79
2023-02-17T18:04:09.285Z,90.86
2023-02-17T18:06:42.942Z,90.72
2023-02-17T18:09:30.228Z,90.13
2023-02-17T18:12:01.391Z,89.93
2023-02-17T18:14:29.948Z,88.96
2023-02-17T18:16:58.956Z,89.72
2023-02-17T18:19:27.236Z,89.51
2023-02-17T18:21:54.832Z,89.19
2023-02-17T18:24:23.710Z,89.00
2023-02-17T18:26:52.155Z,89.56
2023-02-17T18:29:20.376Z,90.34
2023-02-17T18:31:48.438Z,91.57
2023-02-17T18:34:19.211Z,91.87
2023-02-17T18:36:47.063Z,92.66
2023-02-17T18:39:14.782Z,93.23
2023-02-17T18:41:43.671Z,93.30
2023-02-17T18:44:15.863Z,93.63
2023-02-17T18:46:43.871Z,93.87
2023-02-17T18:49:11.724Z,93.36
2023-02-17T18:51:39.701Z,94.13
2023-02-17T18:54:12.957Z,93.18
2023-02-17T18:56:43.292Z,93.24
2023-02-17T18:59:12.188Z,93.41
2023-02-17T19:01:40.940Z,92.74
2023-02-17T19:04:12.440Z,92.80
2023-02-17T19:06:42.591Z,91.83
2023-02-17T19:09:10.391Z,91.41
2023-02-17T19:11:38.258Z,91.52
2023-02-17T19:14:06.104Z,91.24
2023-02-17T19:16:36.631Z,90.66
2023-02-17T19:19:04.599Z,90.35
2023-02-17T19:21:35.936Z,90.21
2023-02-17T19:24:03.841Z,89.95
2023-02-17T19:26:34.055Z,89.85
2023-02-17T19:29:01.609Z,89.30
2023-02-17T19:31:29.588Z,88.97
2023-02-17T19:34:07.452Z,89.61
2023-02-17T19:36:34.988Z,89.96
2023-02-17T19:41:45.113Z,90.63
2023-02-17T19:44:12.690Z,90.77
2023-02-17T19:46:40.893Z,91.24
2023-02-17T19:49:10.147Z,91.55
2023-02-17T19:51:37.724Z,91.03
2023-02-17T19:54:05.618Z,90.75
2023-02-17T19:56:35.185Z,90.72
2023-02-17T19:59:03.347Z,91.03
2023-02-17T20:01:33.510Z,90.49
2023-02-17T20:04:06.023Z,90.58
2023-02-17T20:06:39.647Z,90.28
2023-02-17T20:09:10.519Z,90.18
2023-02-17T20:11:38.580Z,90.53
2023-02-17T20:14:07.012Z,91.49
2023-02-17T20:16:39.039Z,90.87
2023-02-17T20:19:09.970Z,91.24
2023-02-17T20:21:42.218Z,91.42
2023-02-17T20:24:10.643Z,91.96
2023-02-17T20:26:40.698Z,92.38
2023-02-17T20:29:18.909Z,92.63
2023-02-17T20:31:46.655Z,93.20
2023-02-17T20:34:26.885Z,92.91
2023-02-17T20:37:04.426Z,93.72
2023-02-17T20:39:32.010Z,93.83
2023-02-17T20:42:00.566Z,94.25
2023-02-17T20:44:28.567Z,95.63
2023-02-17T20:46:57.156Z,96.36
2023-02-17T20:49:25.469Z,97.54
2023-02-17T20:51:53.810Z,98.07
2023-02-17T20:54:25.331Z,98.83
2023-02-17T20:56:53.092Z,99.37
2023-02-17T20:59:20.835Z,99.47
2023-02-17T21:01:48.664Z,99.24
2023-02-17T21:04:19.573Z,98.67
2023-02-17T21:06:47.392Z,98.96
2023-02-17T21:09:19.383Z,98.36
2023-02-17T21:11:48.938Z,98.15
2023-02-17T21:14:16.600Z,98.13
2023-02-17T21:16:45.239Z,98.39
2023-02-17T21:19:13.014Z,98.59
2023-02-17T21:21:41.796Z,98.43
2023-02-17T21:24:09.618Z,98.24
2023-02-17T21:26:44.435Z,97.64
2023-02-17T21:29:15.384Z,96.98
2023-02-17T21:31:43.014Z,97.35
2023-02-17T21:34:10.698Z,97.70
2023-02-17T21:36:38.462Z,97.62
2023-02-17T21:39:06.544Z,96.72
2023-02-17T21:41:34.585Z,96.21
2023-02-17T21:44:20.867Z,95.43
2023-02-17T21:46:49.862Z,94.06
2023-02-17T21:49:17.433Z,93.77
2023-02-17T21:55:45.672Z,94.30
2023-02-17T21:58:15.236Z,94.77
2023-02-17T22:00:42.813Z,94.48
2023-02-17T22:03:11.849Z,94.23
2023-02-17T22:05:39.410Z,94.06
2023-02-17T22:08:07.181Z,94.50
2023-02-17T22:10:37.707Z,94.59
2023-02-17T22:13:06.089Z,94.30
2023-02-17T22:15:33.796Z,94.96
2023-02-17T22:18:02.099Z,94.80
2023-02-17T22:20:31.334Z,94.37
2023-02-17T22:22:58.884Z,95.28
2023-02-17T22:25:26.503Z,94.87
2023-02-17T22:27:54.099Z,96.17
2023-02-17T22:30:21.873Z,96.84
2023-02-17T22:32:52.190Z,97.46
2023-02-17T22:35:20.877Z,98.39
2023-02-17T22:37:51.694Z,99.25
2023-02-17T22:40:19.756Z,100.00
2023-02-17T22:42:49.753Z,100.00
2023-02-17T22:45:18.302Z,100.00
2023-02-17T22:47:45.926Z,100.00
2023-02-17T22:50:13.532Z,100.00
2023-02-17T22:52:41.780Z,100.00
2023-02-17T22:55:10.822Z,100.00
2023-02-17T22:57:45.649Z,100.00
2023-02-17T23:00:15.210Z,100.00
2023-02-17T23:02:42.957Z,100.00
2023-02-17T23:05:11.023Z,100.00
2023-02-17T23:07:38.624Z,100.00
2023-02-17T23:10:07.780Z,100.00
2023-02-17T23:12:37.792Z,100.00
2023-02-17T23:15:06.694Z,100.00
2023-02-17T23:17:55.887Z,100.00
2023-02-17T23:20:24.710Z,100.00
2023-02-17T23:22:58.243Z,100.00
2023-02-17T23:25:25.879Z,100.00
2023-02-17T23:27:54.924Z,100.00
2023-02-17T23:30:27.387Z,100.00
2023-02-17T23:32:55.680Z,100.00
2023-02-17T23:35:23.314Z,100.00
2023-02-17T23:37:53.488Z,100.00
2023-02-17T23:40:23.983Z,100.00
2023-02-17T23:42:53.736Z,100.00
2023-02-17T23:45:23.806Z,100.00
2023-02-17T23:47:51.354Z,100.00
2023-02-17T23:50:19.507Z,100.00
2023-02-17T23:52:47.115Z,100.00
2023-02-17T23:55:14.928Z,100.00
2023-02-17T23:57:42.592Z,100.00
